sensor_id;sensor_type;location;lat;lon;timestamp;pressure;altitude;pressure_sealevel;temperature;humidity
49341;BME280;35209;51.050;13.678;2024-02-26T00:04:10;149122.13;;;1.81;100.00
49341;BME280;35209;51.050;13.678;2024-02-26T00:09:12;149050.34;;;1.52;100.00
49341;BME280;35209;51.050;13.678;2024-02-26T00:14:14;149070.84;;;1.60;100.00
49341;BME280;35209;51.050;13.678;2024-02-26T00:19:16;149136.25;;;1.86;100.00
49341;BME280;35209;51.050;13.678;2024-02-26T00:24:18;149042.63;;;1.49;100.00
49341;BME280;35209;51.050;13.678;2024-02-26T00:29:20;149073.41;;;1.61;100.00
49341;BME280;35209;51.050;13.678;2024-02-26T00:34:23;149031.09;;;1.44;100.00
49341;BME280;35209;51.050;13.678;2024-02-26T00:39:25;148990.06;;;1.28;100.00
49341;BME280;35209;51.050;13.678;2024-02-26T00:44:28;149005.47;;;1.34;100.00
49341;BME280;35209;51.050;13.678;2024-02-26T00:49:30;149031.09;;;1.44;100.00
49341;BME280;35209;51.050;13.678;2024-02-26T00:54:32;148990.06;;;1.28;100.00
49341;BME280;35209;51.050;13.678;2024-02-26T00:59:35;148933.69;;;1.06;100.00
49341;BME280;35209;51.050;13.678;2024-02-26T01:04:37;148942.66;;;1.09;100.00
49341;BME280;35209;51.050;13.678;2024-02-26T01:09:39;148954.19;;;1.14;100.00
49341;BME280;35209;51.050;13.678;2024-02-26T01:14:40;149005.47;;;1.34;100.00
49341;BME280;35209;51.050;13.678;2024-02-26T01:19:42;149002.94;;;1.33;100.00
49341;BME280;35209;51.050;13.678;2024-02-26T01:24:44;148974.72;;;1.22;100.00
49341;BME280;35209;51.050;13.678;2024-02-26T01:29:46;148956.75;;;1.15;100.00
49341;BME280;35209;51.050;13.678;2024-02-26T01:34:48;148954.19;;;1.14;100.00
49341;BME280;35209;51.050;13.678;2024-02-26T01:39:50;148969.63;;;1.20;100.00
49341;BME280;35209;51.050;13.678;2024-02-26T01:44:51;148990.06;;;1.28;100.00
49341;BME280;35209;51.050;13.678;2024-02-26T01:49:53;148996.50;;;1.31;100.00
49341;BME280;35209;51.050;13.678;2024-02-26T01:54:55;148969.63;;;1.20;100.00
49341;BME280;35209;51.050;13.678;2024-02-26T01:59:57;148958.06;;;1.15;100.00
49341;BME280;35209;51.050;13.678;2024-02-26T02:04:59;148900.38;;;0.92;100.00
49341;BME280;35209;51.050;13.678;2024-02-26T02:10:02;148913.25;;;0.97;100.00
49341;BME280;35209;51.050;13.678;2024-02-26T02:15:04;148933.69;;;1.06;100.00
49341;BME280;35209;51.050;13.678;2024-02-26T02:20:17;148950.38;;;1.12;100.00
49341;BME280;35209;51.050;13.678;2024-02-26T02:25:20;148856.81;;;0.75;100.00
49341;BME280;35209;51.050;13.678;2024-02-26T02:30:24;148868.34;;;0.80;100.00
49341;BME280;35209;51.050;13.678;2024-02-26T02:35:26;148931.16;;;1.05;100.00
49341;BME280;35209;51.050;13.678;2024-02-26T02:40:28;148914.50;;;0.98;100.00
49341;BME280;35209;51.050;13.678;2024-02-26T02:45:30;148835.03;;;0.66;100.00
49341;BME280;35209;51.050;13.678;2024-02-26T02:50:32;148908.09;;;0.95;100.00
49341;BME280;35209;51.050;13.678;2024-02-26T02:55:34;148860.69;;;0.77;100.00
49341;BME280;35209;51.050;13.678;2024-02-26T03:00:35;148858.16;;;0.75;100.00
49341;BME280;35209;51.050;13.678;2024-02-26T03:05:38;148879.94;;;0.84;100.00
49341;BME280;35209;51.050;13.678;2024-02-26T03:10:39;148799.19;;;0.52;100.00
49341;BME280;35209;51.050;13.678;2024-02-26T03:15:41;148864.53;;;0.78;100.00
49341;BME280;35209;51.050;13.678;2024-02-26T03:20:43;148787.66;;;0.47;100.00
49341;BME280;35209;51.050;13.678;2024-02-26T03:25:45;148861.97;;;0.77;100.00
49341;BME280;35209;51.050;13.678;2024-02-26T03:30:49;148928.59;;;1.04;100.00
49341;BME280;35209;51.050;13.678;2024-02-26T03:35:51;148810.72;;;0.57;100.00
49341;BME280;35209;51.050;13.678;2024-02-26T03:40:52;148820.97;;;0.61;100.00
49341;BME280;35209;51.050;13.678;2024-02-26T03:45:54;148780.00;;;0.44;100.00
49341;BME280;35209;51.050;13.678;2024-02-26T03:50:56;148777.41;;;0.43;100.00
49341;BME280;35209;51.050;13.678;2024-02-26T03:55:58;148765.91;;;0.39;100.00
49341;BME280;35209;51.050;13.678;2024-02-26T04:01:04;148767.16;;;0.39;100.00
49341;BME280;35209;51.050;13.678;2024-02-26T04:06:08;148842.75;;;0.69;100.00
49341;BME280;35209;51.050;13.678;2024-02-26T04:11:11;148881.19;;;0.85;100.00
49341;BME280;35209;51.050;13.678;2024-02-26T04:16:13;148870.94;;;0.81;100.00
49341;BME280;35209;51.050;13.678;2024-02-26T04:21:14;148868.34;;;0.80;100.00
49341;BME280;35209;51.050;13.678;2024-02-26T04:26:16;148786.41;;;0.47;100.00
49341;BME280;35209;51.050;13.678;2024-02-26T04:31:18;148759.53;;;0.36;100.00
49341;BME280;35209;51.050;13.678;2024-02-26T04:36:20;148735.16;;;0.27;100.00
49341;BME280;35209;51.050;13.678;2024-02-26T04:41:22;148722.34;;;0.21;100.00
49341;BME280;35209;51.050;13.678;2024-02-26T04:46:23;148763.34;;;0.38;100.00
49341;BME280;35209;51.050;13.678;2024-02-26T04:51:25;148753.09;;;0.34;100.00
49341;BME280;35209;51.050;13.678;2024-02-26T04:56:27;148785.13;;;0.46;100.00
49341;BME280;35209;51.050;13.678;2024-02-26T05:01:29;148705.72;;;0.15;100.00
49341;BME280;35209;51.050;13.678;2024-02-26T05:06:31;148758.25;;;0.36;100.00
49341;BME280;35209;51.050;13.678;2024-02-26T05:11:33;148787.66;;;0.47;100.00
49341;BME280;35209;51.050;13.678;2024-02-26T05:16:36;148815.88;;;0.59;100.00
49341;BME280;35209;51.050;13.678;2024-02-26T05:21:38;148750.53;;;0.33;100.00
49341;BME280;35209;51.050;13.678;2024-02-26T05:26:41;148755.66;;;0.35;100.00
49341;BME280;35209;51.050;13.678;2024-02-26T05:31:43;148733.88;;;0.26;100.00
49341;BME280;35209;51.050;13.678;2024-02-26T05:36:44;148710.84;;;0.17;100.00
49341;BME280;35209;51.050;13.678;2024-02-26T05:41:46;148833.78;;;0.66;100.00
49341;BME280;35209;51.050;13.678;2024-02-26T05:46:48;148873.50;;;0.82;100.00
49341;BME280;35209;51.050;13.678;2024-02-26T05:51:50;148805.63;;;0.55;100.00
49341;BME280;35209;51.050;13.678;2024-02-26T05:56:52;148776.16;;;0.43;100.00
49341;BME280;35209;51.050;13.678;2024-02-26T06:01:54;148748.00;;;0.32;100.00
49341;BME280;35209;51.050;13.678;2024-02-26T06:06:55;148754.38;;;0.34;100.00
49341;BME280;35209;51.050;13.678;2024-02-26T06:11:57;148859.41;;;0.76;100.00
49341;BME280;35209;51.050;13.678;2024-02-26T06:16:59;148841.47;;;0.69;100.00
49341;BME280;35209;51.050;13.678;2024-02-26T06:22:01;148846.63;;;0.71;100.00
49341;BME280;35209;51.050;13.678;2024-02-26T06:27:03;148854.28;;;0.74;100.00
49341;BME280;35209;51.050;13.678;2024-02-26T06:32:05;149002.94;;;1.33;100.00
49341;BME280;35209;51.050;13.678;2024-02-26T06:37:10;149279.84;;;2.43;100.00
49341;BME280;35209;51.050;13.678;2024-02-26T06:42:12;149428.72;;;3.02;100.00
49341;BME280;35209;51.050;13.678;2024-02-26T06:47:14;149504.47;;;3.33;100.00
49341;BME280;35209;51.050;13.678;2024-02-26T06:52:16;149826.84;;;4.61;100.00
49341;BME280;35209;51.050;13.678;2024-02-26T06:57:19;150121.28;;;5.77;100.00
49341;BME280;35209;51.050;13.678;2024-02-26T07:02:21;150125.13;;;5.79;95.51
49341;BME280;35209;51.050;13.678;2024-02-26T07:07:24;150033.81;;;5.43;93.46
49341;BME280;35209;51.050;13.678;2024-02-26T07:12:26;149903.94;;;4.91;92.84
49341;BME280;35209;51.050;13.678;2024-02-26T07:17:28;149713.75;;;4.16;95.13
49341;BME280;35209;51.050;13.678;2024-02-26T07:22:30;149733.03;;;4.23;95.98
49341;BME280;35209;51.050;13.678;2024-02-26T07:27:32;149703.47;;;4.12;97.69
49341;BME280;35209;51.050;13.678;2024-02-26T07:32:34;149734.31;;;4.24;97.63
49341;BME280;35209;51.050;13.678;2024-02-26T07:37:36;149734.31;;;4.24;96.30
49341;BME280;35209;51.050;13.678;2024-02-26T07:42:38;149715.09;;;4.16;99.67
49341;BME280;35209;51.050;13.678;2024-02-26T07:47:41;149934.78;;;5.03;99.60
49341;BME280;35209;51.050;13.678;2024-02-26T07:52:44;150132.84;;;5.82;89.80
49341;BME280;35209;51.050;13.678;2024-02-26T07:57:46;150131.56;;;5.81;91.32
49341;BME280;35209;51.050;13.678;2024-02-26T08:02:48;150035.09;;;5.43;95.59
49341;BME280;35209;51.050;13.678;2024-02-26T08:07:49;150019.69;;;5.37;96.09
49341;BME280;35209;51.050;13.678;2024-02-26T08:12:51;150077.53;;;5.60;95.03
49341;BME280;35209;51.050;13.678;2024-02-26T08:17:53;150135.41;;;5.83;94.77
49341;BME280;35209;51.050;13.678;2024-02-26T08:22:56;150186.94;;;6.03;93.59
49341;BME280;35209;51.050;13.678;2024-02-26T08:27:58;150118.72;;;5.76;96.18
49341;BME280;35209;51.050;13.678;2024-02-26T08:33:00;150212.66;;;6.14;93.31
49341;BME280;35209;51.050;13.678;2024-02-26T08:38:02;150302.75;;;6.49;91.48
49341;BME280;35209;51.050;13.678;2024-02-26T08:43:04;150323.34;;;6.57;92.03
49341;BME280;35209;51.050;13.678;2024-02-26T08:48:07;150262.88;;;6.34;94.59
49341;BME280;35209;51.050;13.678;2024-02-26T08:53:11;150336.19;;;6.63;93.01
49341;BME280;35209;51.050;13.678;2024-02-26T08:58:14;150354.25;;;6.70;92.94
49341;BME280;35209;51.050;13.678;2024-02-26T09:03:24;150403.16;;;6.89;91.33
49341;BME280;35209;51.050;13.678;2024-02-26T09:08:29;150425.03;;;6.98;91.47
49341;BME280;35209;51.050;13.678;2024-02-26T09:13:34;150382.53;;;6.81;93.92
49341;BME280;35209;51.050;13.678;2024-02-26T09:18:39;150407.03;;;6.91;93.75
49341;BME280;35209;51.050;13.678;2024-02-26T09:23:41;150528.03;;;7.39;91.08
49341;BME280;35209;51.050;13.678;2024-02-26T09:28:44;150526.75;;;7.38;91.01
49341;BME280;35209;51.050;13.678;2024-02-26T09:33:46;150575.75;;;7.57;90.35
49341;BME280;35209;51.050;13.678;2024-02-26T09:38:48;150580.88;;;7.59;90.95
49341;BME280;35209;51.050;13.678;2024-02-26T09:44:02;150682.66;;;8.00;88.43
49341;BME280;35209;51.050;13.678;2024-02-26T09:49:06;150723.91;;;8.16;88.71
49341;BME280;35209;51.050;13.678;2024-02-26T09:54:09;150793.53;;;8.44;85.25
49341;BME280;35209;51.050;13.678;2024-02-26T09:59:15;150797.38;;;8.45;85.99
49341;BME280;35209;51.050;13.678;2024-02-26T10:04:18;150870.91;;;8.74;83.77
49341;BME280;35209;51.050;13.678;2024-02-26T10:09:21;150883.78;;;8.79;84.89
49341;BME280;35209;51.050;13.678;2024-02-26T10:14:23;150981.81;;;9.18;80.01
49341;BME280;35209;51.050;13.678;2024-02-26T10:19:29;150959.88;;;9.09;81.88
49341;BME280;35209;51.050;13.678;2024-02-26T10:24:33;151011.50;;;9.30;78.50
49341;BME280;35209;51.050;13.678;2024-02-26T10:29:36;151112.13;;;9.70;77.24
49341;BME280;35209;51.050;13.678;2024-02-26T10:34:39;151139.19;;;9.80;77.44
49341;BME280;35209;51.050;13.678;2024-02-26T10:39:46;151261.84;;;10.29;75.23
49341;BME280;35209;51.050;13.678;2024-02-26T10:44:48;151277.34;;;10.35;74.02
49341;BME280;35209;51.050;13.678;2024-02-26T10:49:50;151313.53;;;10.49;72.38
49341;BME280;35209;51.050;13.678;2024-02-26T10:54:54;151267.00;;;10.31;73.00
49341;BME280;35209;51.050;13.678;2024-02-26T11:00:03;151258.00;;;10.27;74.12
49341;BME280;35209;51.050;13.678;2024-02-26T11:05:07;151458.09;;;11.06;71.30
49341;BME280;35209;51.050;13.678;2024-02-26T11:10:11;151531.75;;;11.35;70.08
49341;BME280;35209;51.050;13.678;2024-02-26T11:15:13;151500.75;;;11.23;68.00
49341;BME280;35209;51.050;13.678;2024-02-26T11:20:16;151409.06;;;10.87;70.17
49341;BME280;35209;51.050;13.678;2024-02-26T11:25:19;151362.56;;;10.69;69.40
49341;BME280;35209;51.050;13.678;2024-02-26T11:30:21;151236.00;;;10.19;72.71
49341;BME280;35209;51.050;13.678;2024-02-26T11:35:25;151316.09;;;10.50;71.54
49341;BME280;35209;51.050;13.678;2024-02-26T11:40:27;151327.72;;;10.55;72.24
49341;BME280;35209;51.050;13.678;2024-02-26T11:45:47;151312.19;;;10.49;71.37
49341;BME280;35209;51.050;13.678;2024-02-26T11:50:51;151352.22;;;10.65;70.07
49341;BME280;35209;51.050;13.678;2024-02-26T11:56:33;151465.88;;;11.09;68.82
49341;BME280;35209;51.050;13.678;2024-02-26T12:01:39;151442.63;;;11.00;69.70
49341;BME280;35209;51.050;13.678;2024-02-26T12:06:52;151378.03;;;10.75;69.71
49341;BME280;35209;51.050;13.678;2024-02-26T12:11:54;151350.94;;;10.64;68.68
49341;BME280;35209;51.050;13.678;2024-02-26T12:16:56;151321.22;;;10.52;70.26
49341;BME280;35209;51.050;13.678;2024-02-26T12:21:59;151334.13;;;10.57;70.35
49341;BME280;35209;51.050;13.678;2024-02-26T12:27:01;151261.84;;;10.29;71.13
49341;BME280;35209;51.050;13.678;2024-02-26T12:32:04;151251.53;;;10.25;70.05
49341;BME280;35209;51.050;13.678;2024-02-26T12:37:09;151238.56;;;10.20;70.33
49341;BME280;35209;51.050;13.678;2024-02-26T12:42:12;151277.34;;;10.35;70.20
49341;BME280;35209;51.050;13.678;2024-02-26T12:47:14;151277.34;;;10.35;70.74
49341;BME280;35209;51.050;13.678;2024-02-26T12:52:18;151251.53;;;10.25;70.50
49341;BME280;35209;51.050;13.678;2024-02-26T12:57:20;151281.25;;;10.37;69.89
49341;BME280;35209;51.050;13.678;2024-02-26T13:02:22;151175.31;;;9.95;72.23
49341;BME280;35209;51.050;13.678;2024-02-26T13:07:24;151234.72;;;10.18;71.83
49341;BME280;35209;51.050;13.678;2024-02-26T13:12:26;151299.28;;;10.44;70.21
49341;BME280;35209;51.050;13.678;2024-02-26T13:17:32;151304.47;;;10.46;68.92
49341;BME280;35209;51.050;13.678;2024-02-26T13:22:34;151300.56;;;10.44;68.78
49341;BME280;35209;51.050;13.678;2024-02-26T13:27:36;151287.66;;;10.39;71.76
49341;BME280;35209;51.050;13.678;2024-02-26T13:32:40;151305.75;;;10.46;70.50
49341;BME280;35209;51.050;13.678;2024-02-26T13:37:42;151298.00;;;10.43;69.74
49341;BME280;35209;51.050;13.678;2024-02-26T13:42:44;151330.28;;;10.56;67.76
49341;BME280;35209;51.050;13.678;2024-02-26T13:47:46;151287.66;;;10.39;68.62
49341;BME280;35209;51.050;13.678;2024-02-26T13:52:48;151264.44;;;10.30;69.21
49341;BME280;35209;51.050;13.678;2024-02-26T13:57:55;151276.06;;;10.34;69.19
49341;BME280;35209;51.050;13.678;2024-02-26T14:02:59;151272.19;;;10.33;68.76
49341;BME280;35209;51.050;13.678;2024-02-26T14:08:01;151236.00;;;10.19;69.83
49341;BME280;35209;51.050;13.678;2024-02-26T14:13:03;151264.44;;;10.30;69.46
49341;BME280;35209;51.050;13.678;2024-02-26T14:18:06;151312.19;;;10.49;68.21
49341;BME280;35209;51.050;13.678;2024-02-26T14:23:10;151292.84;;;10.41;68.13
49341;BME280;35209;51.050;13.678;2024-02-26T14:28:12;151274.75;;;10.34;67.94
49341;BME280;35209;51.050;13.678;2024-02-26T14:33:22;151233.41;;;10.18;69.53
49341;BME280;35209;51.050;13.678;2024-02-26T14:38:25;151125.00;;;9.75;71.44
49341;BME280;35209;51.050;13.678;2024-02-26T14:43:26;151223.06;;;10.14;70.70
49341;BME280;35209;51.050;13.678;2024-02-26T14:48:30;151261.84;;;10.29;69.19
49341;BME280;35209;51.050;13.678;2024-02-26T14:53:32;151175.31;;;9.95;71.59
49341;BME280;35209;51.050;13.678;2024-02-26T14:58:34;151234.72;;;10.18;70.28
49341;BME280;35209;51.050;13.678;2024-02-26T15:03:36;151192.13;;;10.01;71.90
49341;BME280;35209;51.050;13.678;2024-02-26T15:08:38;151252.81;;;10.25;69.95
49341;BME280;35209;51.050;13.678;2024-02-26T15:13:40;151237.28;;;10.19;69.61
49341;BME280;35209;51.050;13.678;2024-02-26T15:18:42;151199.84;;;10.04;70.50
49341;BME280;35209;51.050;13.678;2024-02-26T15:23:44;151203.75;;;10.06;70.29
49341;BME280;35209;51.050;13.678;2024-02-26T15:29:05;151073.38;;;9.54;72.79
49341;BME280;35209;51.050;13.678;2024-02-26T15:34:07;151103.09;;;9.66;72.02
49341;BME280;35209;51.050;13.678;2024-02-26T15:39:09;151083.72;;;9.58;72.90
49341;BME280;35209;51.050;13.678;2024-02-26T15:44:11;151132.72;;;9.78;72.26
49341;BME280;35209;51.050;13.678;2024-02-26T15:49:13;151153.38;;;9.86;71.50
49341;BME280;35209;51.050;13.678;2024-02-26T15:54:17;151082.44;;;9.58;73.48
49341;BME280;35209;51.050;13.678;2024-02-26T15:59:19;151137.91;;;9.80;72.65
49341;BME280;35209;51.050;13.678;2024-02-26T16:04:21;151079.84;;;9.57;74.36
49341;BME280;35209;51.050;13.678;2024-02-26T16:09:24;151087.56;;;9.60;73.83
49341;BME280;35209;51.050;13.678;2024-02-26T16:19:30;150977.94;;;9.17;75.78
49341;BME280;35209;51.050;13.678;2024-02-26T16:24:32;150928.91;;;8.97;77.11
49341;BME280;35209;51.050;13.678;2024-02-26T16:29:35;150939.25;;;9.01;76.76
49341;BME280;35209;51.050;13.678;2024-02-26T16:34:37;150925.06;;;8.96;76.90
49341;BME280;35209;51.050;13.678;2024-02-26T16:39:41;150914.75;;;8.92;76.77
49341;BME280;35209;51.050;13.678;2024-02-26T16:44:42;150904.44;;;8.88;77.25
49341;BME280;35209;51.050;13.678;2024-02-26T16:49:45;150854.16;;;8.68;78.83
49341;BME280;35209;51.050;13.678;2024-02-26T16:54:47;150823.22;;;8.55;80.24
49341;BME280;35209;51.050;13.678;2024-02-26T16:59:49;150814.19;;;8.52;80.92
49341;BME280;35209;51.050;13.678;2024-02-26T17:04:51;150825.78;;;8.56;80.44
49341;BME280;35209;51.050;13.678;2024-02-26T17:09:53;150847.69;;;8.65;79.92
49341;BME280;35209;51.050;13.678;2024-02-26T17:14:56;150833.53;;;8.59;80.09
49341;BME280;35209;51.050;13.678;2024-02-26T17:19:59;150856.72;;;8.69;79.99
49341;BME280;35209;51.050;13.678;2024-02-26T17:25:02;150843.84;;;8.64;80.04
49341;BME280;35209;51.050;13.678;2024-02-26T17:30:04;150810.31;;;8.50;81.14
49341;BME280;35209;51.050;13.678;2024-02-26T17:35:07;150810.31;;;8.50;82.44
49341;BME280;35209;51.050;13.678;2024-02-26T17:40:12;150793.53;;;8.44;82.71
49341;BME280;35209;51.050;13.678;2024-02-26T17:45:14;150767.72;;;8.33;83.13
49341;BME280;35209;51.050;13.678;2024-02-26T17:50:16;150783.22;;;8.40;83.11
49341;BME280;35209;51.050;13.678;2024-02-26T17:55:18;150752.22;;;8.27;83.82
49341;BME280;35209;51.050;13.678;2024-02-26T18:00:20;150736.78;;;8.21;84.37
49341;BME280;35209;51.050;13.678;2024-02-26T18:05:22;150736.78;;;8.21;84.28
49341;BME280;35209;51.050;13.678;2024-02-26T18:10:24;150837.38;;;8.61;83.98
49341;BME280;35209;51.050;13.678;2024-02-26T18:15:27;150838.66;;;8.62;83.10
49341;BME280;35209;51.050;13.678;2024-02-26T18:20:32;150794.81;;;8.44;83.79
49341;BME280;35209;51.050;13.678;2024-02-26T18:25:38;150787.13;;;8.41;84.33
49341;BME280;35209;51.050;13.678;2024-02-26T18:30:40;150752.22;;;8.27;84.77
49341;BME280;35209;51.050;13.678;2024-02-26T18:35:46;150707.13;;;8.09;85.56
49341;BME280;35209;51.050;13.678;2024-02-26T18:40:48;150674.91;;;7.97;85.92
49341;BME280;35209;51.050;13.678;2024-02-26T18:45:50;150644.00;;;7.84;86.60
49341;BME280;35209;51.050;13.678;2024-02-26T18:50:53;150628.53;;;7.78;86.96
49341;BME280;35209;51.050;13.678;2024-02-26T18:55:55;150593.75;;;7.65;87.82
49341;BME280;35209;51.050;13.678;2024-02-26T19:00:56;150633.72;;;7.80;88.39
49341;BME280;35209;51.050;13.678;2024-02-26T19:05:58;150624.69;;;7.77;88.30
49341;BME280;35209;51.050;13.678;2024-02-26T19:11:00;150552.56;;;7.48;89.27
49341;BME280;35209;51.050;13.678;2024-02-26T19:16:02;150480.41;;;7.20;90.78
49341;BME280;35209;51.050;13.678;2024-02-26T19:21:04;150418.63;;;6.95;91.72
49341;BME280;35209;51.050;13.678;2024-02-26T19:26:06;150408.31;;;6.91;92.30
49341;BME280;35209;51.050;13.678;2024-02-26T19:31:09;150407.03;;;6.91;92.78
49341;BME280;35209;51.050;13.678;2024-02-26T19:36:11;150367.09;;;6.75;93.58
49341;BME280;35209;51.050;13.678;2024-02-26T19:41:13;150341.38;;;6.65;93.62
49341;BME280;35209;51.050;13.678;2024-02-26T19:46:15;150319.50;;;6.56;95.05
49341;BME280;35209;51.050;13.678;2024-02-26T19:51:18;150283.41;;;6.42;97.21
49341;BME280;35209;51.050;13.678;2024-02-26T19:56:20;150249.97;;;6.28;97.50
49341;BME280;35209;51.050;13.678;2024-02-26T20:01:23;150356.81;;;6.71;97.03
49341;BME280;35209;51.050;13.678;2024-02-26T20:06:25;150408.31;;;6.91;96.11
49341;BME280;35209;51.050;13.678;2024-02-26T20:11:27;150354.25;;;6.70;96.82
49341;BME280;35209;51.050;13.678;2024-02-26T20:16:29;150356.81;;;6.71;96.76
49341;BME280;35209;51.050;13.678;2024-02-26T20:21:31;150261.59;;;6.33;98.77
49341;BME280;35209;51.050;13.678;2024-02-26T20:26:39;150212.66;;;6.14;100.00
49341;BME280;35209;51.050;13.678;2024-02-26T20:31:42;150242.28;;;6.25;100.00
49341;BME280;35209;51.050;13.678;2024-02-26T20:36:43;150197.25;;;6.07;100.00
49341;BME280;35209;51.050;13.678;2024-02-26T20:41:45;150342.66;;;6.65;100.00
49341;BME280;35209;51.050;13.678;2024-02-26T20:46:47;150280.84;;;6.41;100.00
49341;BME280;35209;51.050;13.678;2024-02-26T20:51:49;150238.38;;;6.24;100.00
49341;BME280;35209;51.050;13.678;2024-02-26T20:56:51;150215.22;;;6.15;100.00
49341;BME280;35209;51.050;13.678;2024-02-26T21:01:53;150184.38;;;6.02;100.00
49341;BME280;35209;51.050;13.678;2024-02-26T21:06:55;150185.66;;;6.03;100.00
49341;BME280;35209;51.050;13.678;2024-02-26T21:11:57;150222.97;;;6.18;100.00
49341;BME280;35209;51.050;13.678;2024-02-26T21:16:59;150377.41;;;6.79;100.00
49341;BME280;35209;51.050;13.678;2024-02-26T21:22:00;150404.44;;;6.90;100.00
49341;BME280;35209;51.050;13.678;2024-02-26T21:27:02;150280.84;;;6.41;100.00
49341;BME280;35209;51.050;13.678;2024-02-26T21:32:05;150217.81;;;6.16;100.00
49341;BME280;35209;51.050;13.678;2024-02-26T21:37:07;150213.94;;;6.14;100.00
49341;BME280;35209;51.050;13.678;2024-02-26T21:42:09;150235.81;;;6.23;100.00
49341;BME280;35209;51.050;13.678;2024-02-26T21:47:11;150291.16;;;6.45;100.00
49341;BME280;35209;51.050;13.678;2024-02-26T21:52:13;150365.81;;;6.74;100.00
49341;BME280;35209;51.050;13.678;2024-02-26T21:57:18;150377.41;;;6.79;100.00
49341;BME280;35209;51.050;13.678;2024-02-26T22:02:20;150288.59;;;6.44;100.00
49341;BME280;35209;51.050;13.678;2024-02-26T22:07:22;150238.38;;;6.24;100.00
49341;BME280;35209;51.050;13.678;2024-02-26T22:12:28;150171.47;;;5.97;100.00
49341;BME280;35209;51.050;13.678;2024-02-26T22:17:30;150153.44;;;5.90;100.00
49341;BME280;35209;51.050;13.678;2024-02-26T22:22:32;150147.00;;;5.88;100.00
49341;BME280;35209;51.050;13.678;2024-02-26T22:27:34;150177.94;;;6.00;100.00
49341;BME280;35209;51.050;13.678;2024-02-26T22:32:36;150201.09;;;6.09;100.00
49341;BME280;35209;51.050;13.678;2024-02-26T22:37:38;150207.53;;;6.12;100.00
49341;BME280;35209;51.050;13.678;2024-02-26T22:42:40;150194.66;;;6.06;100.00
49341;BME280;35209;51.050;13.678;2024-02-26T22:47:42;150188.22;;;6.04;100.00
49341;BME280;35209;51.050;13.678;2024-02-26T22:52:44;150203.63;;;6.10;100.00
49341;BME280;35209;51.050;13.678;2024-02-26T22:57:46;150255.13;;;6.30;100.00
49341;BME280;35209;51.050;13.678;2024-02-26T23:02:48;150301.47;;;6.49;100.00
49341;BME280;35209;51.050;13.678;2024-02-26T23:07:51;150211.38;;;6.13;100.00
49341;BME280;35209;51.050;13.678;2024-02-26T23:12:53;150295.03;;;6.46;100.00
49341;BME280;35209;51.050;13.678;2024-02-26T23:17:54;150313.03;;;6.53;100.00
49341;BME280;35209;51.050;13.678;2024-02-26T23:22:56;150328.47;;;6.60;100.00
49341;BME280;35209;51.050;13.678;2024-02-26T23:27:58;150253.84;;;6.30;100.00
49341;BME280;35209;51.050;13.678;2024-02-26T23:33:01;150140.59;;;5.85;100.00
49341;BME280;35209;51.050;13.678;2024-02-26T23:38:03;150197.25;;;6.07;100.00
49341;BME280;35209;51.050;13.678;2024-02-26T23:43:05;150186.94;;;6.03;100.00
49341;BME280;35209;51.050;13.678;2024-02-26T23:48:06;150286.03;;;6.43;100.00
49341;BME280;35209;51.050;13.678;2024-02-26T23:53:09;150264.16;;;6.34;100.00
49341;BME280;35209;51.050;13.678;2024-02-26T23:58:11;150222.97;;;6.18;100.00
